ASX454 LICD-LIRF
Flight info
| Callsign | ASX454 |
|---|---|
| Flight time | 1h 4m |
| Altitude | 34000 |
| Route | LPD DCT KOLEX DCT SENTI DCT KAPIL DCT RONAB DCT ESINO |
| Aircraft | A320/M-SDE3FGHIRWY/LB1 |
Departure
| Time | 2026-04-14 09:15 |
|---|---|
| Airport | Lampedusa Airport (LICD) |
Arrival
| Time | 2026-04-14 10:19 |
|---|---|
| Airport | Rome–Fiumicino Leonardo da Vinci International Airport (LIRF) |
| Time | Latitude | Longitude | Altitude | Speed | Heading |
|---|---|---|---|---|---|
| 2026-04-14 08:51 | 35.49947 | 12.61514 | 54 ft | 0 kts | 322° |
| 2026-04-14 09:08 | 35.49936 | 12.61526 | 50 ft | 4 kts | 263° |
| 2026-04-14 09:08 | 35.49946 | 12.61540 | 53 ft | 4 kts | 237° |
| 2026-04-14 09:08 | 35.49950 | 12.61549 | 54 ft | 0 kts | 253° |
| 2026-04-14 09:11 | 35.49944 | 12.61541 | 52 ft | 1 kts | 207° |
| 2026-04-14 09:11 | 35.49932 | 12.61546 | 51 ft | 3 kts | 159° |
| 2026-04-14 09:11 | 35.49899 | 12.61570 | 54 ft | 8 kts | 149° |
| 2026-04-14 09:12 | 35.49840 | 12.61613 | 54 ft | 12 kts | 150° |
| 2026-04-14 09:12 | 35.49770 | 12.61598 | 54 ft | 13 kts | 254° |
| 2026-04-14 09:12 | 35.49751 | 12.61473 | 55 ft | 17 kts | 260° |
| 2026-04-14 09:12 | 35.49729 | 12.61312 | 54 ft | 21 kts | 261° |
| 2026-04-14 09:13 | 35.49704 | 12.61117 | 51 ft | 25 kts | 261° |
| 2026-04-14 09:13 | 35.49687 | 12.60917 | 51 ft | 24 kts | 272° |
| 2026-04-14 09:13 | 35.49676 | 12.60814 | 50 ft | 3 kts | 210° |
| 2026-04-14 09:13 | 35.49668 | 12.60822 | 50 ft | 1 kts | 117° |
| 2026-04-14 09:14 | 35.49666 | 12.60848 | 50 ft | 3 kts | 82° |
| 2026-04-14 09:14 | 35.49678 | 12.60930 | 51 ft | 35 kts | 81° |
| 2026-04-14 09:14 | 35.49766 | 12.61576 | 55 ft | 114 kts | 81° |
| 2026-04-14 09:14 | 35.49944 | 12.62755 | 264 ft | 153 kts | 76° |
| 2026-04-14 09:15 | 35.50105 | 12.64049 | 1052 ft | 153 kts | 84° |
| 2026-04-14 09:15 | 35.50208 | 12.65345 | 1870 ft | 153 kts | 96° |
| 2026-04-14 09:15 | 35.50120 | 12.66729 | 2169 ft | 174 kts | 98° |
| 2026-04-14 09:15 | 35.50018 | 12.68295 | 2456 ft | 195 kts | 98° |
| 2026-04-14 09:16 | 35.49944 | 12.69445 | 2636 ft | 213 kts | 97° |
| 2026-04-14 09:16 | 35.49828 | 12.71364 | 3011 ft | 237 kts | 97° |
| 2026-04-14 09:16 | 35.49708 | 12.73473 | 3547 ft | 256 kts | 97° |
| 2026-04-14 09:16 | 35.49592 | 12.75691 | 4386 ft | 262 kts | 97° |
| 2026-04-14 09:17 | 35.49479 | 12.77950 | 5229 ft | 268 kts | 97° |
| 2026-04-14 09:17 | 35.49362 | 12.80251 | 6134 ft | 271 kts | 98° |
| 2026-04-14 09:17 | 35.49246 | 12.82574 | 6965 ft | 275 kts | 98° |
| 2026-04-14 09:17 | 35.49129 | 12.84943 | 7744 ft | 281 kts | 98° |
| 2026-04-14 09:18 | 35.49272 | 12.87384 | 8498 ft | 295 kts | 78° |
| 2026-04-14 09:18 | 35.50242 | 12.89636 | 9242 ft | 307 kts | 50° |
| 2026-04-14 09:18 | 35.51969 | 12.91163 | 9947 ft | 314 kts | 20° |
| 2026-04-14 09:18 | 35.54147 | 12.91631 | 10354 ft | 327 kts | 353° |
| 2026-04-14 09:19 | 35.56467 | 12.91203 | 10563 ft | 348 kts | 346° |
| 2026-04-14 09:19 | 35.58896 | 12.90645 | 11076 ft | 358 kts | 346° |
| 2026-04-14 09:19 | 35.61345 | 12.90066 | 11733 ft | 362 kts | 346° |
| 2026-04-14 09:19 | 35.63847 | 12.89486 | 12431 ft | 366 kts | 346° |
| 2026-04-14 09:20 | 35.66360 | 12.88914 | 13140 ft | 370 kts | 346° |
| 2026-04-14 09:20 | 35.68911 | 12.88344 | 13820 ft | 374 kts | 347° |
| 2026-04-14 09:20 | 35.71491 | 12.87773 | 14421 ft | 378 kts | 346° |
| 2026-04-14 09:20 | 35.74097 | 12.87198 | 14985 ft | 383 kts | 346° |
| 2026-04-14 09:21 | 35.76739 | 12.86616 | 15535 ft | 388 kts | 346° |
| 2026-04-14 09:21 | 35.79417 | 12.86026 | 16095 ft | 393 kts | 345° |
| 2026-04-14 09:21 | 35.82133 | 12.85427 | 16650 ft | 398 kts | 346° |
| 2026-04-14 09:21 | 35.84874 | 12.84821 | 17225 ft | 402 kts | 345° |
| 2026-04-14 09:22 | 35.87650 | 12.84204 | 17802 ft | 407 kts | 345° |
| 2026-04-14 09:22 | 35.90418 | 12.83585 | 18335 ft | 412 kts | 345° |
| 2026-04-14 09:22 | 35.93251 | 12.82953 | 18838 ft | 416 kts | 345° |
| 2026-04-14 09:22 | 35.96118 | 12.82313 | 19344 ft | 421 kts | 345° |
| 2026-04-14 09:23 | 35.99016 | 12.81667 | 19857 ft | 425 kts | 345° |
| 2026-04-14 09:23 | 36.01942 | 12.81018 | 20368 ft | 430 kts | 345° |
| 2026-04-14 09:23 | 36.04902 | 12.80361 | 20865 ft | 434 kts | 345° |
| 2026-04-14 09:23 | 36.07887 | 12.79698 | 21388 ft | 438 kts | 345° |
| 2026-04-14 09:24 | 36.10910 | 12.79027 | 21871 ft | 442 kts | 345° |
| 2026-04-14 09:24 | 36.13955 | 12.78349 | 22346 ft | 447 kts | 345° |
| 2026-04-14 09:24 | 36.17034 | 12.77658 | 22830 ft | 451 kts | 345° |
| 2026-04-14 09:24 | 36.20118 | 12.76964 | 23362 ft | 456 kts | 345° |
| 2026-04-14 09:25 | 36.23279 | 12.76250 | 23748 ft | 461 kts | 345° |
| 2026-04-14 09:25 | 36.26447 | 12.75535 | 24151 ft | 464 kts | 345° |
| 2026-04-14 09:25 | 36.29642 | 12.74819 | 24561 ft | 467 kts | 345° |
| 2026-04-14 09:25 | 36.32849 | 12.74102 | 24975 ft | 470 kts | 345° |
| 2026-04-14 09:26 | 36.36076 | 12.73382 | 25385 ft | 472 kts | 345° |
| 2026-04-14 09:26 | 36.39324 | 12.72657 | 25784 ft | 475 kts | 345° |
| 2026-04-14 09:26 | 36.42584 | 12.71928 | 26173 ft | 478 kts | 345° |
| 2026-04-14 09:26 | 36.45863 | 12.71193 | 26537 ft | 480 kts | 345° |
| 2026-04-14 09:27 | 36.49161 | 12.70453 | 26916 ft | 483 kts | 345° |
| 2026-04-14 09:27 | 36.52474 | 12.69706 | 27281 ft | 485 kts | 345° |
| 2026-04-14 09:27 | 36.55816 | 12.68948 | 27663 ft | 488 kts | 346° |
| 2026-04-14 09:27 | 36.59162 | 12.68187 | 28017 ft | 491 kts | 346° |
| 2026-04-14 09:28 | 36.62530 | 12.67423 | 28370 ft | 493 kts | 346° |
| 2026-04-14 09:28 | 36.65917 | 12.66653 | 28724 ft | 496 kts | 346° |
| 2026-04-14 09:28 | 36.69328 | 12.65879 | 29063 ft | 499 kts | 346° |
| 2026-04-14 09:28 | 36.72757 | 12.65100 | 29418 ft | 501 kts | 346° |
| 2026-04-14 09:29 | 36.76201 | 12.64316 | 29764 ft | 504 kts | 346° |
| 2026-04-14 09:29 | 36.79659 | 12.63530 | 30081 ft | 507 kts | 346° |
| 2026-04-14 09:29 | 36.83140 | 12.62737 | 30383 ft | 509 kts | 346° |
| 2026-04-14 09:29 | 36.86630 | 12.61941 | 30697 ft | 511 kts | 346° |
| 2026-04-14 09:30 | 36.90128 | 12.61146 | 31081 ft | 510 kts | 346° |
| 2026-04-14 09:30 | 36.93614 | 12.60356 | 31527 ft | 508 kts | 346° |
| 2026-04-14 09:30 | 36.97086 | 12.59566 | 31975 ft | 506 kts | 346° |
| 2026-04-14 09:30 | 37.00543 | 12.58775 | 32435 ft | 504 kts | 346° |
| 2026-04-14 09:31 | 37.03990 | 12.57984 | 32888 ft | 503 kts | 346° |
| 2026-04-14 09:31 | 37.07430 | 12.57196 | 33365 ft | 501 kts | 347° |
| 2026-04-14 09:31 | 37.10848 | 12.56415 | 33799 ft | 500 kts | 347° |
| 2026-04-14 09:31 | 37.14266 | 12.55634 | 33903 ft | 497 kts | 347° |
| 2026-04-14 09:32 | 37.20937 | 12.53648 | 33920 ft | 490 kts | 341° |
| 2026-04-14 09:33 | 37.30790 | 12.50168 | 33919 ft | 490 kts | 341° |
| 2026-04-14 09:33 | 37.37349 | 12.47843 | 33914 ft | 490 kts | 341° |
| 2026-04-14 09:34 | 37.43907 | 12.45521 | 33911 ft | 490 kts | 341° |
| 2026-04-14 09:34 | 37.50430 | 12.43213 | 33913 ft | 490 kts | 341° |
| 2026-04-14 09:35 | 37.57001 | 12.40880 | 33909 ft | 490 kts | 341° |
| 2026-04-14 09:35 | 37.63561 | 12.38532 | 33933 ft | 490 kts | 341° |
| 2026-04-14 09:36 | 37.70118 | 12.36184 | 33920 ft | 490 kts | 341° |
| 2026-04-14 09:36 | 37.76682 | 12.33844 | 33910 ft | 490 kts | 341° |
| 2026-04-14 09:37 | 37.83257 | 12.31496 | 33907 ft | 490 kts | 341° |
| 2026-04-14 09:37 | 37.89829 | 12.29145 | 33906 ft | 490 kts | 341° |
| 2026-04-14 09:38 | 37.96398 | 12.26781 | 33911 ft | 491 kts | 341° |
| 2026-04-14 09:38 | 38.02971 | 12.24404 | 33925 ft | 491 kts | 341° |
| 2026-04-14 09:39 | 38.09537 | 12.22032 | 33928 ft | 490 kts | 341° |
| 2026-04-14 09:39 | 38.16102 | 12.19662 | 33930 ft | 490 kts | 341° |
| 2026-04-14 09:40 | 38.22653 | 12.17290 | 33944 ft | 490 kts | 341° |
| 2026-04-14 09:40 | 38.29213 | 12.14908 | 33945 ft | 489 kts | 341° |
| 2026-04-14 09:41 | 38.35780 | 12.12647 | 33945 ft | 490 kts | 348° |
| 2026-04-14 09:41 | 38.42555 | 12.11544 | 33939 ft | 491 kts | 352° |
| 2026-04-14 09:42 | 38.49338 | 12.10506 | 33938 ft | 491 kts | 352° |
| 2026-04-14 09:42 | 38.56108 | 12.09466 | 33946 ft | 489 kts | 352° |
| 2026-04-14 09:43 | 38.62865 | 12.08429 | 33939 ft | 489 kts | 352° |
| 2026-04-14 09:43 | 38.69614 | 12.07400 | 33937 ft | 488 kts | 352° |
| 2026-04-14 09:44 | 38.76353 | 12.06367 | 33941 ft | 487 kts | 352° |
| 2026-04-14 09:44 | 38.83080 | 12.05335 | 33943 ft | 487 kts | 352° |
| 2026-04-14 09:45 | 38.89807 | 12.04300 | 33943 ft | 486 kts | 352° |
| 2026-04-14 09:45 | 38.96520 | 12.03269 | 33952 ft | 486 kts | 353° |
| 2026-04-14 09:46 | 39.03223 | 12.02230 | 33947 ft | 485 kts | 353° |
| 2026-04-14 09:46 | 39.09911 | 12.01190 | 33943 ft | 484 kts | 352° |
| 2026-04-14 09:47 | 39.16601 | 12.00144 | 33937 ft | 484 kts | 353° |
| 2026-04-14 09:47 | 39.23279 | 11.99120 | 33931 ft | 483 kts | 353° |
| 2026-04-14 09:48 | 39.29935 | 11.98094 | 33943 ft | 481 kts | 353° |
| 2026-04-14 09:48 | 39.36545 | 11.97057 | 33941 ft | 481 kts | 353° |
| 2026-04-14 09:49 | 39.43221 | 11.96010 | 33932 ft | 480 kts | 353° |
| 2026-04-14 09:49 | 39.49808 | 11.94973 | 33936 ft | 479 kts | 353° |
| 2026-04-14 09:50 | 39.56420 | 11.93933 | 33938 ft | 478 kts | 353° |
| 2026-04-14 09:50 | 39.63025 | 11.92897 | 33934 ft | 478 kts | 353° |
| 2026-04-14 09:51 | 39.69629 | 11.91858 | 33932 ft | 477 kts | 353° |
| 2026-04-14 09:51 | 39.76214 | 11.90819 | 33933 ft | 476 kts | 353° |
| 2026-04-14 09:52 | 39.82786 | 11.89779 | 33923 ft | 476 kts | 353° |
| 2026-04-14 09:52 | 39.89379 | 11.88818 | 33920 ft | 475 kts | 355° |
| 2026-04-14 09:53 | 39.94870 | 11.88406 | 33924 ft | 475 kts | 358° |
| 2026-04-14 09:53 | 40.01476 | 11.88144 | 33926 ft | 474 kts | 358° |
| 2026-04-14 09:54 | 40.08062 | 11.87836 | 33922 ft | 474 kts | 358° |
| 2026-04-14 09:54 | 40.14669 | 11.87422 | 33923 ft | 474 kts | 357° |
| 2026-04-14 09:55 | 40.21225 | 11.86984 | 33913 ft | 473 kts | 357° |
| 2026-04-14 09:55 | 40.27808 | 11.86556 | 33913 ft | 473 kts | 357° |
| 2026-04-14 09:56 | 40.34390 | 11.86138 | 33916 ft | 473 kts | 357° |
| 2026-04-14 09:56 | 40.40970 | 11.85726 | 33921 ft | 472 kts | 357° |
| 2026-04-14 09:57 | 40.47534 | 11.85311 | 33900 ft | 473 kts | 357° |
| 2026-04-14 09:57 | 40.54133 | 11.84896 | 33884 ft | 475 kts | 357° |
| 2026-04-14 09:58 | 40.60749 | 11.84472 | 33884 ft | 476 kts | 357° |
| 2026-04-14 09:58 | 40.67370 | 11.84058 | 33891 ft | 476 kts | 357° |
| 2026-04-14 09:59 | 40.74007 | 11.83632 | 33901 ft | 477 kts | 356° |
| 2026-04-14 09:59 | 40.80620 | 11.83208 | 33906 ft | 477 kts | 357° |
| 2026-04-14 09:59 | 40.83914 | 11.82999 | 33220 ft | 480 kts | 357° |
| 2026-04-14 10:00 | 40.87296 | 11.82781 | 32127 ft | 478 kts | 357° |
| 2026-04-14 10:00 | 40.90612 | 11.82567 | 31067 ft | 474 kts | 357° |
| 2026-04-14 10:00 | 40.93844 | 11.82359 | 30115 ft | 469 kts | 357° |
| 2026-04-14 10:00 | 40.97080 | 11.82152 | 29063 ft | 462 kts | 357° |
| 2026-04-14 10:01 | 41.00306 | 11.81941 | 28084 ft | 453 kts | 357° |
| 2026-04-14 10:01 | 41.03397 | 11.81742 | 27162 ft | 446 kts | 357° |
| 2026-04-14 10:01 | 41.06466 | 11.81549 | 26258 ft | 438 kts | 358° |
| 2026-04-14 10:01 | 41.09488 | 11.81355 | 25390 ft | 431 kts | 358° |
| 2026-04-14 10:02 | 41.12470 | 11.81162 | 24563 ft | 425 kts | 358° |
| 2026-04-14 10:02 | 41.15410 | 11.80972 | 23476 ft | 424 kts | 358° |
| 2026-04-14 10:02 | 41.18393 | 11.80777 | 21861 ft | 432 kts | 358° |
| 2026-04-14 10:02 | 41.21399 | 11.80580 | 20777 ft | 429 kts | 357° |
| 2026-04-14 10:03 | 41.24300 | 11.80392 | 20519 ft | 404 kts | 357° |
| 2026-04-14 10:03 | 41.27020 | 11.80217 | 20302 ft | 381 kts | 357° |
| 2026-04-14 10:03 | 41.29628 | 11.80050 | 19729 ft | 370 kts | 357° |
| 2026-04-14 10:03 | 41.32183 | 11.79888 | 19047 ft | 365 kts | 357° |
| 2026-04-14 10:04 | 41.34701 | 11.79729 | 18354 ft | 361 kts | 357° |
| 2026-04-14 10:04 | 41.37199 | 11.79573 | 17594 ft | 357 kts | 358° |
| 2026-04-14 10:04 | 41.39669 | 11.79770 | 16993 ft | 354 kts | 9° |
| 2026-04-14 10:04 | 41.42080 | 11.80340 | 16631 ft | 350 kts | 10° |
| 2026-04-14 10:05 | 41.44475 | 11.80903 | 16237 ft | 347 kts | 10° |
| 2026-04-14 10:05 | 41.46849 | 11.81462 | 15841 ft | 345 kts | 10° |
| 2026-04-14 10:05 | 41.49203 | 11.82017 | 15455 ft | 343 kts | 10° |
| 2026-04-14 10:05 | 41.51543 | 11.82572 | 15068 ft | 340 kts | 10° |
| 2026-04-14 10:06 | 41.53874 | 11.83124 | 14689 ft | 338 kts | 10° |
| 2026-04-14 10:06 | 41.56158 | 11.83664 | 14322 ft | 336 kts | 10° |
| 2026-04-14 10:06 | 41.58329 | 11.84179 | 13979 ft | 334 kts | 10° |
| 2026-04-14 10:06 | 41.60619 | 11.84725 | 13612 ft | 332 kts | 10° |
| 2026-04-14 10:07 | 41.62889 | 11.85271 | 13211 ft | 330 kts | 10° |
| 2026-04-14 10:07 | 41.65144 | 11.85813 | 12818 ft | 329 kts | 10° |
| 2026-04-14 10:07 | 41.67394 | 11.86353 | 12430 ft | 327 kts | 10° |
| 2026-04-14 10:07 | 41.69628 | 11.86888 | 12060 ft | 325 kts | 10° |
| 2026-04-14 10:08 | 41.71848 | 11.87417 | 11688 ft | 323 kts | 10° |
| 2026-04-14 10:08 | 41.74054 | 11.87943 | 11321 ft | 322 kts | 10° |
| 2026-04-14 10:08 | 41.76256 | 11.88467 | 10961 ft | 320 kts | 10° |
| 2026-04-14 10:08 | 41.78442 | 11.88988 | 10603 ft | 318 kts | 10° |
| 2026-04-14 10:09 | 41.80618 | 11.89504 | 10314 ft | 314 kts | 10° |
| 2026-04-14 10:09 | 41.82742 | 11.90008 | 10143 ft | 306 kts | 10° |
| 2026-04-14 10:09 | 41.84836 | 11.90503 | 9842 ft | 304 kts | 10° |
| 2026-04-14 10:09 | 41.86916 | 11.90993 | 9500 ft | 302 kts | 10° |
| 2026-04-14 10:10 | 41.88979 | 11.91475 | 9182 ft | 300 kts | 10° |
| 2026-04-14 10:10 | 41.91035 | 11.91955 | 8828 ft | 299 kts | 10° |
| 2026-04-14 10:10 | 41.93077 | 11.92427 | 8484 ft | 298 kts | 10° |
| 2026-04-14 10:10 | 41.95119 | 11.92896 | 8145 ft | 296 kts | 10° |
| 2026-04-14 10:11 | 41.97145 | 11.93360 | 7824 ft | 294 kts | 10° |
| 2026-04-14 10:11 | 41.99156 | 11.93836 | 7478 ft | 294 kts | 14° |
| 2026-04-14 10:11 | 42.00979 | 11.94965 | 7086 ft | 285 kts | 41° |
| 2026-04-14 10:11 | 42.02227 | 11.96923 | 6519 ft | 278 kts | 61° |
| 2026-04-14 10:12 | 42.03223 | 11.99211 | 6128 ft | 279 kts | 63° |
| 2026-04-14 10:12 | 42.04155 | 12.01446 | 5844 ft | 276 kts | 65° |
| 2026-04-14 10:12 | 42.04741 | 12.03818 | 5715 ft | 261 kts | 86° |
| 2026-04-14 10:12 | 42.04628 | 12.06175 | 5539 ft | 247 kts | 110° |
| 2026-04-14 10:13 | 42.04120 | 12.08335 | 5422 ft | 238 kts | 111° |
| 2026-04-14 10:13 | 42.03626 | 12.10415 | 5214 ft | 229 kts | 111° |
| 2026-04-14 10:13 | 42.03148 | 12.12435 | 4915 ft | 224 kts | 113° |
| 2026-04-14 10:13 | 42.02677 | 12.14420 | 4464 ft | 222 kts | 111° |
| 2026-04-14 10:14 | 42.02205 | 12.16387 | 3986 ft | 220 kts | 114° |
| 2026-04-14 10:14 | 42.01494 | 12.18095 | 3842 ft | 200 kts | 133° |
| 2026-04-14 10:14 | 42.00505 | 12.19273 | 3587 ft | 184 kts | 149° |
| 2026-04-14 10:14 | 41.99332 | 12.19957 | 3195 ft | 183 kts | 162° |
| 2026-04-14 10:15 | 41.98158 | 12.20449 | 2845 ft | 170 kts | 162° |
| 2026-04-14 10:15 | 41.97078 | 12.20905 | 2597 ft | 156 kts | 163° |
| 2026-04-14 10:15 | 41.96086 | 12.21324 | 2387 ft | 143 kts | 163° |
| 2026-04-14 10:15 | 41.95162 | 12.21713 | 2213 ft | 137 kts | 163° |
| 2026-04-14 10:16 | 41.94263 | 12.22091 | 2017 ft | 133 kts | 163° |
| 2026-04-14 10:16 | 41.93384 | 12.22461 | 1842 ft | 132 kts | 163° |
| 2026-04-14 10:16 | 41.92511 | 12.22827 | 1669 ft | 131 kts | 163° |
| 2026-04-14 10:16 | 41.91648 | 12.23190 | 1482 ft | 130 kts | 164° |
| 2026-04-14 10:17 | 41.90786 | 12.23552 | 1316 ft | 131 kts | 164° |
| 2026-04-14 10:17 | 41.89915 | 12.23918 | 1137 ft | 131 kts | 162° |
| 2026-04-14 10:17 | 41.89046 | 12.24282 | 955 ft | 131 kts | 162° |
| 2026-04-14 10:17 | 41.88182 | 12.24645 | 781 ft | 128 kts | 162° |
| 2026-04-14 10:18 | 41.86466 | 12.25361 | 465 ft | 129 kts | 162° |
| 2026-04-14 10:18 | 41.85596 | 12.25731 | 249 ft | 131 kts | 163° |
| 2026-04-14 10:18 | 41.84718 | 12.26100 | 103 ft | 130 kts | 162° |
| 2026-04-14 10:19 | 41.83886 | 12.26447 | 20 ft | 116 kts | 163° |
| 2026-04-14 10:19 | 41.83269 | 12.26707 | 11 ft | 69 kts | 162° |
| 2026-04-14 10:19 | 41.82945 | 12.26841 | 12 ft | 39 kts | 166° |
| 2026-04-14 10:19 | 41.82717 | 12.26868 | 12 ft | 28 kts | 185° |
| 2026-04-14 10:20 | 41.82527 | 12.26816 | 11 ft | 27 kts | 192° |
| 2026-04-14 10:20 | 41.82343 | 12.26780 | 11 ft | 27 kts | 175° |
| 2026-04-14 10:20 | 41.82167 | 12.26843 | 11 ft | 26 kts | 162° |
| 2026-04-14 10:20 | 41.81993 | 12.26918 | 12 ft | 27 kts | 162° |
| 2026-04-14 10:21 | 41.81805 | 12.26997 | 13 ft | 30 kts | 163° |
| 2026-04-14 10:21 | 41.81596 | 12.27084 | 12 ft | 33 kts | 162° |
| 2026-04-14 10:21 | 41.81367 | 12.27180 | 12 ft | 36 kts | 162° |
| 2026-04-14 10:21 | 41.81120 | 12.27285 | 15 ft | 35 kts | 162° |
| 2026-04-14 10:22 | 41.80932 | 12.27351 | 13 ft | 28 kts | 180° |
| 2026-04-14 10:22 | 41.80734 | 12.27310 | 13 ft | 30 kts | 194° |
| 2026-04-14 10:22 | 41.80633 | 12.27142 | 13 ft | 25 kts | 251° |
| 2026-04-14 10:22 | 41.80569 | 12.26912 | 14 ft | 27 kts | 250° |
| 2026-04-14 10:23 | 41.80501 | 12.26664 | 18 ft | 29 kts | 249° |
| 2026-04-14 10:23 | 41.80440 | 12.26442 | 16 ft | 20 kts | 250° |
| 2026-04-14 10:23 | 41.80335 | 12.26375 | 15 ft | 18 kts | 155° |
| 2026-04-14 10:23 | 41.80210 | 12.26408 | 14 ft | 19 kts | 176° |
| 2026-04-14 10:24 | 41.80102 | 12.26460 | 14 ft | 15 kts | 142° |
| 2026-04-14 10:24 | 41.80104 | 12.26581 | 14 ft | 13 kts | 109° |
| 2026-04-14 10:24 | 41.80021 | 12.26634 | 14 ft | 15 kts | 159° |
| 2026-04-14 10:24 | 41.79915 | 12.26686 | 14 ft | 17 kts | 160° |
| 2026-04-14 10:25 | 41.79800 | 12.26742 | 14 ft | 15 kts | 160° |
| 2026-04-14 10:25 | 41.79751 | 12.26741 | 14 ft | 5 kts | 236° |
| 2026-04-14 10:25 | 41.79745 | 12.26714 | 14 ft | 2 kts | 251° |
| 2026-04-14 10:25 | 41.79741 | 12.26701 | 14 ft | 1 kts | 249° |
| 2026-04-14 10:26 | 41.79739 | 12.26694 | 14 ft | 1 kts | 249° |
| 2026-04-14 10:26 | 41.79739 | 12.26693 | 14 ft | 0 kts | 249° |